Paul Brotzge — WDD4377 — position and weather

sailwx.info

Track history (hours):
 
Tides and Currents Weather Stations Pressure Air Temp Water Temp Dewpoint Dewpoint Depression Visibility Wind Speed Wind Dir Waves Ship Positions

Paul Brotzge

Owner: American Commercial Lines LLC, Jeffersonville, IN. More information available from US FCC via Universal Licensing System and Coast Guard Vessel Documentation Center.

Last reported at 2017-Aug-20 12:56 UTC. Time now 2017-Aug-22 05:25 UTC.
Position N 41°28' W 090°39'.

Length 44 m; draft 2.9 m.

Type: Tow > 200 m length. MMSI: 367143920.

Date/timePositionNaut miles runAvg speedWind from/ knotsBaromVisibWave heightAir tempDewpointWater temp
2017-Aug-20 12:56N 41°28' W 090°39'39 1.4
2017-Aug-19 09:45N 40°53' W 091°02'0 0.0
2017-Aug-19 09:30N 40°53' W 091°02'1 2.3
2017-Aug-19 09:00N 40°52' W 091°03'1 1.5
2017-Aug-19 08:30N 40°51' W 091°03'2 3.6
2017-Aug-19 08:00N 40°50' W 091°05'2 3.7
2017-Aug-19 07:30N 40°48' W 091°06'2 4.5
2017-Aug-19 07:00N 40°46' W 091°06'1 1.5
2017-Aug-19 06:30N 40°45' W 091°06'2 2.9
2017-Aug-19 05:58N 40°44' W 091°07'0 0.2
2017-Aug-19 05:27N 40°44' W 091°07'2 2.4
2017-Aug-19 04:43N 40°42' W 091°07'  
2017-Aug-16 18:41N 38°55' W 090°31'1 4.1
2017-Aug-16 18:29N 38°55' W 090°30'2 4.0
2017-Aug-16 18:00N 38°57' W 090°29'1 1.7
2017-Aug-16 17:30N 38°57' W 090°28'0 0.0
2017-Aug-16 17:00N 38°57' W 090°28'0 0.7
2017-Aug-16 16:30N 38°57' W 090°28'2 4.2
2017-Aug-16 16:00N 38°58' W 090°25'1 1.2
2017-Aug-16 15:30N 38°58' W 090°24'0 0.0
2017-Aug-16 15:00N 38°58' W 090°24'0 0.0
2017-Aug-16 14:30N 38°58' W 090°24'0 0.0
2017-Aug-16 14:00N 38°58' W 090°24'0 0.0
2017-Aug-16 13:30N 38°58' W 090°24'0 0.0
2017-Aug-16 13:00N 38°58' W 090°24'1 1.7
2017-Aug-16 12:30N 38°57' W 090°23'2 4.2
2017-Aug-16 12:00N 38°56' W 090°21'2 3.9
2017-Aug-16 11:30N 38°55' W 090°19'4 0.1
2017-Aug-14 12:57N 38°55' W 090°14'  
2017-Aug-10 18:23N 40°44' W 091°07'2 6.0
2017-Aug-10 18:00N 40°46' W 091°06'3 5.8
2017-Aug-10 17:30N 40°49' W 091°06'3 5.3
2017-Aug-10 17:00N 40°51' W 091°03'2 4.6
2017-Aug-10 16:30N 40°53' W 091°02'0 0.3
2017-Aug-10 16:00N 40°53' W 091°01'0 0.2
2017-Aug-10 15:30N 40°53' W 091°01'0 0.0
2017-Aug-10 15:00N 40°53' W 091°01'1 2.4
2017-Aug-10 14:30N 40°54' W 091°01'2 4.5
2017-Aug-10 14:00N 40°55' W 090°58'2 4.9
2017-Aug-10 13:30N 40°58' W 090°57'0 0.6
2017-Aug-10 13:00N 40°58' W 090°57'  
Track history (hours):
 
Tides and Currents Weather Stations Pressure Air Temp Water Temp Dewpoint Dewpoint Depression Visibility Wind Speed Wind Dir Waves Ship Positions

Paul Brotzge

Owner: American Commercial Lines LLC, Jeffersonville, IN. More information available from US FCC via Universal Licensing System and Coast Guard Vessel Documentation Center.

Last reported at 2017-Aug-20 12:56 UTC. Time now 2017-Aug-22 05:25 UTC.
Position N 41°28' W 090°39'.

Length 44 m; draft 2.9 m.

Type: Tow > 200 m length. MMSI: 367143920.

Date/timePositionNaut miles runAvg speedWind from/ knotsBaromVisibWave heightAir tempDewpointWater temp
2017-Aug-20 12:56N 41°28' W 090°39'39 1.4
2017-Aug-19 09:45N 40°53' W 091°02'0 0.0
2017-Aug-19 09:30N 40°53' W 091°02'1 2.3
2017-Aug-19 09:00N 40°52' W 091°03'1 1.5
2017-Aug-19 08:30N 40°51' W 091°03'2 3.6
2017-Aug-19 08:00N 40°50' W 091°05'2 3.7
2017-Aug-19 07:30N 40°48' W 091°06'2 4.5
2017-Aug-19 07:00N 40°46' W 091°06'1 1.5
2017-Aug-19 06:30N 40°45' W 091°06'2 2.9
2017-Aug-19 05:58N 40°44' W 091°07'0 0.2
2017-Aug-19 05:27N 40°44' W 091°07'2 2.4
2017-Aug-19 04:43N 40°42' W 091°07'  
2017-Aug-16 18:41N 38°55' W 090°31'1 4.1
2017-Aug-16 18:29N 38°55' W 090°30'2 4.0
2017-Aug-16 18:00N 38°57' W 090°29'1 1.7
2017-Aug-16 17:30N 38°57' W 090°28'0 0.0
2017-Aug-16 17:00N 38°57' W 090°28'0 0.7
2017-Aug-16 16:30N 38°57' W 090°28'2 4.2
2017-Aug-16 16:00N 38°58' W 090°25'1 1.2
2017-Aug-16 15:30N 38°58' W 090°24'0 0.0
2017-Aug-16 15:00N 38°58' W 090°24'0 0.0
2017-Aug-16 14:30N 38°58' W 090°24'0 0.0
2017-Aug-16 14:00N 38°58' W 090°24'0 0.0
2017-Aug-16 13:30N 38°58' W 090°24'0 0.0
2017-Aug-16 13:00N 38°58' W 090°24'1 1.7
2017-Aug-16 12:30N 38°57' W 090°23'2 4.2
2017-Aug-16 12:00N 38°56' W 090°21'2 3.9
2017-Aug-16 11:30N 38°55' W 090°19'4 0.1
2017-Aug-14 12:57N 38°55' W 090°14'  
2017-Aug-10 18:23N 40°44' W 091°07'2 6.0
2017-Aug-10 18:00N 40°46' W 091°06'3 5.8
2017-Aug-10 17:30N 40°49' W 091°06'3 5.3
2017-Aug-10 17:00N 40°51' W 091°03'2 4.6
2017-Aug-10 16:30N 40°53' W 091°02'0 0.3
2017-Aug-10 16:00N 40°53' W 091°01'0 0.2
2017-Aug-10 15:30N 40°53' W 091°01'0 0.0
2017-Aug-10 15:00N 40°53' W 091°01'1 2.4
2017-Aug-10 14:30N 40°54' W 091°01'2 4.5
2017-Aug-10 14:00N 40°55' W 090°58'2 4.9
2017-Aug-10 13:30N 40°58' W 090°57'0 0.6
2017-Aug-10 13:00N 40°58' W 090°57'  

Dump ship's entire track history